sensor_id;sensor_type;location;lat;lon;timestamp;P1;durP1;ratioP1;P2;durP2;ratioP2
34657;SDS011;20865;43.312;27.152;2023-09-07T00:00:34;12.37;;;5.33;;
34657;SDS011;20865;43.312;27.152;2023-09-07T00:03:02;13.40;;;5.80;;
34657;SDS011;20865;43.312;27.152;2023-09-07T00:05:30;11.68;;;5.47;;
34657;SDS011;20865;43.312;27.152;2023-09-07T00:07:58;7.10;;;5.15;;
34657;SDS011;20865;43.312;27.152;2023-09-07T00:10:26;9.03;;;5.58;;
34657;SDS011;20865;43.312;27.152;2023-09-07T00:12:53;8.35;;;5.00;;
34657;SDS011;20865;43.312;27.152;2023-09-07T00:15:21;9.30;;;4.87;;
34657;SDS011;20865;43.312;27.152;2023-09-07T00:17:51;10.55;;;5.62;;
34657;SDS011;20865;43.312;27.152;2023-09-07T00:20:18;6.92;;;4.92;;
34657;SDS011;20865;43.312;27.152;2023-09-07T00:22:47;10.28;;;5.47;;
34657;SDS011;20865;43.312;27.152;2023-09-07T00:25:15;12.58;;;5.37;;
34657;SDS011;20865;43.312;27.152;2023-09-07T00:27:42;10.00;;;5.78;;
34657;SDS011;20865;43.312;27.152;2023-09-07T00:30:10;11.48;;;5.75;;
34657;SDS011;20865;43.312;27.152;2023-09-07T00:32:38;11.25;;;5.50;;
34657;SDS011;20865;43.312;27.152;2023-09-07T00:35:06;12.13;;;5.80;;
34657;SDS011;20865;43.312;27.152;2023-09-07T00:37:34;12.37;;;5.60;;
34657;SDS011;20865;43.312;27.152;2023-09-07T00:40:04;10.70;;;5.72;;
34657;SDS011;20865;43.312;27.152;2023-09-07T00:42:35;9.15;;;5.45;;
34657;SDS011;20865;43.312;27.152;2023-09-07T00:45:03;8.05;;;4.97;;
34657;SDS011;20865;43.312;27.152;2023-09-07T00:47:31;10.30;;;5.40;;
34657;SDS011;20865;43.312;27.152;2023-09-07T00:50:02;9.45;;;6.28;;
34657;SDS011;20865;43.312;27.152;2023-09-07T00:52:32;8.58;;;5.25;;
34657;SDS011;20865;43.312;27.152;2023-09-07T00:55:04;9.58;;;5.20;;
34657;SDS011;20865;43.312;27.152;2023-09-07T00:57:32;9.95;;;5.17;;
34657;SDS011;20865;43.312;27.152;2023-09-07T01:00:00;8.60;;;5.25;;
34657;SDS011;20865;43.312;27.152;2023-09-07T01:02:29;9.53;;;5.92;;
34657;SDS011;20865;43.312;27.152;2023-09-07T01:04:57;8.45;;;5.42;;
34657;SDS011;20865;43.312;27.152;2023-09-07T01:07:25;9.15;;;5.53;;
34657;SDS011;20865;43.312;27.152;2023-09-07T01:10:01;8.33;;;5.55;;
34657;SDS011;20865;43.312;27.152;2023-09-07T01:12:29;9.23;;;5.35;;
34657;SDS011;20865;43.312;27.152;2023-09-07T01:14:57;14.43;;;6.08;;
34657;SDS011;20865;43.312;27.152;2023-09-07T01:17:24;12.68;;;6.35;;
34657;SDS011;20865;43.312;27.152;2023-09-07T01:19:53;13.28;;;6.28;;
34657;SDS011;20865;43.312;27.152;2023-09-07T01:22:24;14.07;;;5.55;;
34657;SDS011;20865;43.312;27.152;2023-09-07T01:24:52;9.95;;;5.60;;
34657;SDS011;20865;43.312;27.152;2023-09-07T01:27:20;9.95;;;5.50;;
34657;SDS011;20865;43.312;27.152;2023-09-07T01:29:48;7.12;;;4.75;;
34657;SDS011;20865;43.312;27.152;2023-09-07T01:32:16;9.65;;;5.95;;
34657;SDS011;20865;43.312;27.152;2023-09-07T01:34:43;8.45;;;5.87;;
34657;SDS011;20865;43.312;27.152;2023-09-07T01:37:11;10.45;;;6.37;;
34657;SDS011;20865;43.312;27.152;2023-09-07T01:39:39;9.15;;;5.83;;
34657;SDS011;20865;43.312;27.152;2023-09-07T01:42:06;9.18;;;6.03;;
34657;SDS011;20865;43.312;27.152;2023-09-07T01:44:34;8.15;;;5.55;;
34657;SDS011;20865;43.312;27.152;2023-09-07T01:47:02;11.68;;;6.05;;
34657;SDS011;20865;43.312;27.152;2023-09-07T01:49:29;9.35;;;5.45;;
34657;SDS011;20865;43.312;27.152;2023-09-07T01:51:57;10.63;;;5.50;;
34657;SDS011;20865;43.312;27.152;2023-09-07T01:54:25;8.90;;;5.45;;
34657;SDS011;20865;43.312;27.152;2023-09-07T01:56:53;10.05;;;6.22;;
34657;SDS011;20865;43.312;27.152;2023-09-07T01:59:21;11.90;;;5.90;;
34657;SDS011;20865;43.312;27.152;2023-09-07T02:01:48;9.85;;;6.00;;
34657;SDS011;20865;43.312;27.152;2023-09-07T02:04:16;11.25;;;5.55;;
34657;SDS011;20865;43.312;27.152;2023-09-07T02:06:43;8.58;;;5.50;;
34657;SDS011;20865;43.312;27.152;2023-09-07T02:09:11;7.95;;;5.50;;
34657;SDS011;20865;43.312;27.152;2023-09-07T02:11:39;11.10;;;5.47;;
34657;SDS011;20865;43.312;27.152;2023-09-07T02:14:06;8.85;;;6.03;;
34657;SDS011;20865;43.312;27.152;2023-09-07T02:16:35;8.88;;;5.78;;
34657;SDS011;20865;43.312;27.152;2023-09-07T02:19:02;8.98;;;5.33;;
34657;SDS011;20865;43.312;27.152;2023-09-07T02:21:31;14.65;;;5.65;;
34657;SDS011;20865;43.312;27.152;2023-09-07T02:23:59;10.60;;;5.62;;
34657;SDS011;20865;43.312;27.152;2023-09-07T02:26:27;11.35;;;5.28;;
34657;SDS011;20865;43.312;27.152;2023-09-07T02:28:54;10.40;;;5.62;;
34657;SDS011;20865;43.312;27.152;2023-09-07T02:31:22;9.73;;;5.22;;
34657;SDS011;20865;43.312;27.152;2023-09-07T02:33:49;10.35;;;5.83;;
34657;SDS011;20865;43.312;27.152;2023-09-07T02:36:17;11.83;;;5.72;;
34657;SDS011;20865;43.312;27.152;2023-09-07T02:38:44;10.13;;;5.80;;
34657;SDS011;20865;43.312;27.152;2023-09-07T02:41:12;13.62;;;6.40;;
34657;SDS011;20865;43.312;27.152;2023-09-07T02:43:40;11.28;;;5.15;;
34657;SDS011;20865;43.312;27.152;2023-09-07T02:46:07;11.12;;;5.17;;
34657;SDS011;20865;43.312;27.152;2023-09-07T02:48:35;11.18;;;6.10;;
34657;SDS011;20865;43.312;27.152;2023-09-07T02:51:02;12.23;;;5.37;;
34657;SDS011;20865;43.312;27.152;2023-09-07T02:53:30;9.13;;;5.17;;
34657;SDS011;20865;43.312;27.152;2023-09-07T02:55:58;9.75;;;5.33;;
34657;SDS011;20865;43.312;27.152;2023-09-07T02:58:27;13.00;;;5.25;;
34657;SDS011;20865;43.312;27.152;2023-09-07T03:00:55;10.20;;;5.30;;
34657;SDS011;20865;43.312;27.152;2023-09-07T03:03:23;11.97;;;5.83;;
34657;SDS011;20865;43.312;27.152;2023-09-07T03:05:50;10.55;;;5.12;;
34657;SDS011;20865;43.312;27.152;2023-09-07T03:08:18;8.88;;;4.87;;
34657;SDS011;20865;43.312;27.152;2023-09-07T03:10:46;8.05;;;4.90;;
34657;SDS011;20865;43.312;27.152;2023-09-07T03:13:13;9.18;;;4.90;;
34657;SDS011;20865;43.312;27.152;2023-09-07T03:15:41;7.92;;;4.78;;
34657;SDS011;20865;43.312;27.152;2023-09-07T03:18:08;11.50;;;4.92;;
34657;SDS011;20865;43.312;27.152;2023-09-07T03:20:36;13.70;;;5.75;;
34657;SDS011;20865;43.312;27.152;2023-09-07T03:23:04;10.80;;;5.65;;
34657;SDS011;20865;43.312;27.152;2023-09-07T03:25:31;9.68;;;4.80;;
34657;SDS011;20865;43.312;27.152;2023-09-07T03:27:59;10.58;;;5.30;;
34657;SDS011;20865;43.312;27.152;2023-09-07T03:30:26;6.97;;;4.97;;
34657;SDS011;20865;43.312;27.152;2023-09-07T03:32:54;10.15;;;5.30;;
34657;SDS011;20865;43.312;27.152;2023-09-07T03:35:22;13.18;;;4.87;;
34657;SDS011;20865;43.312;27.152;2023-09-07T03:37:49;6.85;;;4.47;;
34657;SDS011;20865;43.312;27.152;2023-09-07T03:40:17;8.23;;;4.47;;
34657;SDS011;20865;43.312;27.152;2023-09-07T03:42:44;10.65;;;4.90;;
34657;SDS011;20865;43.312;27.152;2023-09-07T03:45:12;11.22;;;5.47;;
34657;SDS011;20865;43.312;27.152;2023-09-07T03:47:40;7.80;;;4.45;;
34657;SDS011;20865;43.312;27.152;2023-09-07T03:50:08;10.80;;;4.58;;
34657;SDS011;20865;43.312;27.152;2023-09-07T03:52:36;9.00;;;5.05;;
34657;SDS011;20865;43.312;27.152;2023-09-07T03:55:04;11.93;;;5.35;;
34657;SDS011;20865;43.312;27.152;2023-09-07T03:57:32;11.18;;;4.22;;
34657;SDS011;20865;43.312;27.152;2023-09-07T04:00:00;7.78;;;4.30;;
34657;SDS011;20865;43.312;27.152;2023-09-07T04:02:29;8.13;;;4.30;;
34657;SDS011;20865;43.312;27.152;2023-09-07T04:04:57;8.90;;;3.92;;
34657;SDS011;20865;43.312;27.152;2023-09-07T04:07:26;8.30;;;3.95;;
34657;SDS011;20865;43.312;27.152;2023-09-07T04:09:54;7.97;;;4.70;;
34657;SDS011;20865;43.312;27.152;2023-09-07T04:12:22;13.30;;;5.12;;
34657;SDS011;20865;43.312;27.152;2023-09-07T04:14:49;7.40;;;3.98;;
34657;SDS011;20865;43.312;27.152;2023-09-07T04:17:17;12.50;;;4.40;;
34657;SDS011;20865;43.312;27.152;2023-09-07T04:19:44;11.30;;;4.45;;
34657;SDS011;20865;43.312;27.152;2023-09-07T04:22:12;7.40;;;4.28;;
34657;SDS011;20865;43.312;27.152;2023-09-07T04:24:40;7.42;;;4.10;;
34657;SDS011;20865;43.312;27.152;2023-09-07T04:27:07;14.07;;;4.47;;
34657;SDS011;20865;43.312;27.152;2023-09-07T04:29:35;6.85;;;3.92;;
34657;SDS011;20865;43.312;27.152;2023-09-07T04:32:02;8.40;;;4.17;;
34657;SDS011;20865;43.312;27.152;2023-09-07T04:34:30;7.92;;;3.90;;
34657;SDS011;20865;43.312;27.152;2023-09-07T04:36:58;11.18;;;4.60;;
34657;SDS011;20865;43.312;27.152;2023-09-07T04:39:26;14.90;;;4.53;;
34657;SDS011;20865;43.312;27.152;2023-09-07T04:41:53;7.20;;;4.12;;
34657;SDS011;20865;43.312;27.152;2023-09-07T04:44:21;10.82;;;5.85;;
34657;SDS011;20865;43.312;27.152;2023-09-07T04:46:48;11.38;;;4.58;;
34657;SDS011;20865;43.312;27.152;2023-09-07T04:49:17;13.40;;;5.08;;
34657;SDS011;20865;43.312;27.152;2023-09-07T04:51:45;10.63;;;4.62;;
34657;SDS011;20865;43.312;27.152;2023-09-07T04:54:12;7.70;;;5.15;;
34657;SDS011;20865;43.312;27.152;2023-09-07T04:56:41;10.53;;;5.58;;
34657;SDS011;20865;43.312;27.152;2023-09-07T04:59:09;10.63;;;5.50;;
34657;SDS011;20865;43.312;27.152;2023-09-07T05:01:37;9.55;;;5.37;;
34657;SDS011;20865;43.312;27.152;2023-09-07T05:04:04;9.75;;;5.25;;
34657;SDS011;20865;43.312;27.152;2023-09-07T05:06:32;8.70;;;5.08;;
34657;SDS011;20865;43.312;27.152;2023-09-07T05:09:01;10.55;;;5.03;;
34657;SDS011;20865;43.312;27.152;2023-09-07T05:11:29;8.05;;;4.60;;
34657;SDS011;20865;43.312;27.152;2023-09-07T05:13:59;15.38;;;5.40;;
34657;SDS011;20865;43.312;27.152;2023-09-07T05:16:27;8.83;;;5.17;;
34657;SDS011;20865;43.312;27.152;2023-09-07T05:18:55;13.93;;;4.83;;
34657;SDS011;20865;43.312;27.152;2023-09-07T05:21:23;11.75;;;5.40;;
34657;SDS011;20865;43.312;27.152;2023-09-07T05:23:50;14.23;;;5.70;;
34657;SDS011;20865;43.312;27.152;2023-09-07T05:26:21;9.60;;;5.70;;
34657;SDS011;20865;43.312;27.152;2023-09-07T05:28:49;10.28;;;5.37;;
34657;SDS011;20865;43.312;27.152;2023-09-07T05:31:17;12.25;;;5.65;;
34657;SDS011;20865;43.312;27.152;2023-09-07T05:33:45;11.18;;;6.05;;
34657;SDS011;20865;43.312;27.152;2023-09-07T05:36:12;11.10;;;4.92;;
34657;SDS011;20865;43.312;27.152;2023-09-07T05:38:40;8.20;;;4.90;;
34657;SDS011;20865;43.312;27.152;2023-09-07T05:41:07;12.95;;;4.78;;
34657;SDS011;20865;43.312;27.152;2023-09-07T05:43:35;10.10;;;4.65;;
34657;SDS011;20865;43.312;27.152;2023-09-07T05:46:03;18.73;;;4.22;;
34657;SDS011;20865;43.312;27.152;2023-09-07T05:48:30;5.87;;;4.03;;
34657;SDS011;20865;43.312;27.152;2023-09-07T05:50:58;10.80;;;3.85;;
34657;SDS011;20865;43.312;27.152;2023-09-07T05:53:25;9.23;;;4.15;;
34657;SDS011;20865;43.312;27.152;2023-09-07T05:55:53;7.65;;;4.03;;
34657;SDS011;20865;43.312;27.152;2023-09-07T05:58:21;7.00;;;3.70;;
34657;SDS011;20865;43.312;27.152;2023-09-07T06:00:48;6.12;;;3.85;;
34657;SDS011;20865;43.312;27.152;2023-09-07T06:03:16;8.48;;;4.30;;
34657;SDS011;20865;43.312;27.152;2023-09-07T06:08:22;9.50;;;4.08;;
34657;SDS011;20865;43.312;27.152;2023-09-07T06:10:49;9.35;;;4.17;;
34657;SDS011;20865;43.312;27.152;2023-09-07T06:13:17;11.57;;;4.22;;
34657;SDS011;20865;43.312;27.152;2023-09-07T06:15:44;9.18;;;3.22;;
34657;SDS011;20865;43.312;27.152;2023-09-07T06:18:12;7.25;;;4.30;;
34657;SDS011;20865;43.312;27.152;2023-09-07T06:20:40;8.48;;;3.83;;
34657;SDS011;20865;43.312;27.152;2023-09-07T06:23:07;14.43;;;3.92;;
34657;SDS011;20865;43.312;27.152;2023-09-07T06:25:35;8.20;;;3.92;;
34657;SDS011;20865;43.312;27.152;2023-09-07T06:28:03;16.12;;;3.77;;
34657;SDS011;20865;43.312;27.152;2023-09-07T06:30:31;16.23;;;6.60;;
34657;SDS011;20865;43.312;27.152;2023-09-07T06:32:59;8.03;;;3.62;;
34657;SDS011;20865;43.312;27.152;2023-09-07T06:35:26;7.85;;;4.00;;
34657;SDS011;20865;43.312;27.152;2023-09-07T06:37:54;5.72;;;3.77;;
34657;SDS011;20865;43.312;27.152;2023-09-07T06:40:22;7.72;;;3.92;;
34657;SDS011;20865;43.312;27.152;2023-09-07T06:42:51;44.73;;;4.85;;
34657;SDS011;20865;43.312;27.152;2023-09-07T06:45:19;97.50;;;9.70;;
34657;SDS011;20865;43.312;27.152;2023-09-07T06:47:49;17.45;;;4.22;;
34657;SDS011;20865;43.312;27.152;2023-09-07T06:50:17;13.85;;;3.55;;
34657;SDS011;20865;43.312;27.152;2023-09-07T06:52:44;9.10;;;4.03;;
34657;SDS011;20865;43.312;27.152;2023-09-07T06:55:12;6.17;;;3.25;;
34657;SDS011;20865;43.312;27.152;2023-09-07T06:57:39;10.43;;;4.03;;
34657;SDS011;20865;43.312;27.152;2023-09-07T07:00:07;9.50;;;4.12;;
34657;SDS011;20865;43.312;27.152;2023-09-07T07:02:36;6.55;;;3.25;;
34657;SDS011;20865;43.312;27.152;2023-09-07T07:05:04;10.82;;;3.55;;
34657;SDS011;20865;43.312;27.152;2023-09-07T07:07:33;10.28;;;3.90;;
34657;SDS011;20865;43.312;27.152;2023-09-07T07:10:01;13.00;;;4.15;;
34657;SDS011;20865;43.312;27.152;2023-09-07T07:12:30;12.18;;;3.40;;
34657;SDS011;20865;43.312;27.152;2023-09-07T07:14:59;7.62;;;4.22;;
34657;SDS011;20865;43.312;27.152;2023-09-07T07:17:27;6.55;;;3.65;;
34657;SDS011;20865;43.312;27.152;2023-09-07T07:19:55;6.97;;;3.67;;
34657;SDS011;20865;43.312;27.152;2023-09-07T07:22:23;17.65;;;3.75;;
34657;SDS011;20865;43.312;27.152;2023-09-07T07:24:50;9.95;;;3.50;;
34657;SDS011;20865;43.312;27.152;2023-09-07T07:27:18;7.15;;;4.05;;
34657;SDS011;20865;43.312;27.152;2023-09-07T07:29:45;8.03;;;3.87;;
34657;SDS011;20865;43.312;27.152;2023-09-07T07:32:13;8.00;;;3.77;;
34657;SDS011;20865;43.312;27.152;2023-09-07T07:34:40;7.40;;;3.87;;
34657;SDS011;20865;43.312;27.152;2023-09-07T07:37:08;5.72;;;3.50;;
34657;SDS011;20865;43.312;27.152;2023-09-07T07:39:36;7.92;;;3.98;;
34657;SDS011;20865;43.312;27.152;2023-09-07T07:42:03;10.00;;;3.92;;
34657;SDS011;20865;43.312;27.152;2023-09-07T07:44:31;16.12;;;4.28;;
34657;SDS011;20865;43.312;27.152;2023-09-07T07:46:59;7.53;;;3.40;;
34657;SDS011;20865;43.312;27.152;2023-09-07T07:49:26;13.62;;;3.80;;
34657;SDS011;20865;43.312;27.152;2023-09-07T07:51:57;11.95;;;4.00;;
34657;SDS011;20865;43.312;27.152;2023-09-07T07:54:33;7.47;;;3.75;;
34657;SDS011;20865;43.312;27.152;2023-09-07T07:57:02;14.65;;;4.10;;
34657;SDS011;20865;43.312;27.152;2023-09-07T07:59:33;10.75;;;3.27;;
34657;SDS011;20865;43.312;27.152;2023-09-07T08:02:01;10.75;;;4.05;;
34657;SDS011;20865;43.312;27.152;2023-09-07T08:04:31;6.25;;;3.70;;
34657;SDS011;20865;43.312;27.152;2023-09-07T08:07:00;9.55;;;3.72;;
34657;SDS011;20865;43.312;27.152;2023-09-07T08:09:32;15.48;;;3.85;;
34657;SDS011;20865;43.312;27.152;2023-09-07T08:12:00;8.83;;;3.98;;
34657;SDS011;20865;43.312;27.152;2023-09-07T08:14:29;14.75;;;4.55;;
34657;SDS011;20865;43.312;27.152;2023-09-07T08:16:57;10.60;;;3.90;;
34657;SDS011;20865;43.312;27.152;2023-09-07T08:19:25;7.42;;;4.30;;
34657;SDS011;20865;43.312;27.152;2023-09-07T08:21:53;8.85;;;3.75;;
34657;SDS011;20865;43.312;27.152;2023-09-07T08:24:21;5.35;;;3.27;;
34657;SDS011;20865;43.312;27.152;2023-09-07T08:26:48;7.03;;;3.92;;
34657;SDS011;20865;43.312;27.152;2023-09-07T08:29:17;9.13;;;4.15;;
34657;SDS011;20865;43.312;27.152;2023-09-07T08:31:46;7.40;;;4.10;;
34657;SDS011;20865;43.312;27.152;2023-09-07T08:34:13;30.80;;;4.58;;
34657;SDS011;20865;43.312;27.152;2023-09-07T08:36:41;11.40;;;4.47;;
34657;SDS011;20865;43.312;27.152;2023-09-07T08:39:09;17.05;;;4.92;;
34657;SDS011;20865;43.312;27.152;2023-09-07T08:41:41;10.40;;;3.80;;
34657;SDS011;20865;43.312;27.152;2023-09-07T08:44:11;8.25;;;3.40;;
34657;SDS011;20865;43.312;27.152;2023-09-07T08:46:40;8.38;;;3.83;;
34657;SDS011;20865;43.312;27.152;2023-09-07T08:49:08;13.70;;;3.67;;
34657;SDS011;20865;43.312;27.152;2023-09-07T08:51:37;6.00;;;3.45;;
34657;SDS011;20865;43.312;27.152;2023-09-07T08:54:05;8.10;;;4.03;;
34657;SDS011;20865;43.312;27.152;2023-09-07T08:56:35;10.95;;;3.60;;
34657;SDS011;20865;43.312;27.152;2023-09-07T08:59:03;9.20;;;3.72;;
34657;SDS011;20865;43.312;27.152;2023-09-07T09:01:31;8.88;;;3.87;;
34657;SDS011;20865;43.312;27.152;2023-09-07T09:03:59;7.37;;;4.12;;
34657;SDS011;20865;43.312;27.152;2023-09-07T09:06:26;8.53;;;4.47;;
34657;SDS011;20865;43.312;27.152;2023-09-07T09:08:55;6.87;;;3.40;;
34657;SDS011;20865;43.312;27.152;2023-09-07T09:11:24;7.45;;;3.62;;
34657;SDS011;20865;43.312;27.152;2023-09-07T09:13:53;10.45;;;4.17;;
34657;SDS011;20865;43.312;27.152;2023-09-07T09:16:21;7.58;;;4.00;;
34657;SDS011;20865;43.312;27.152;2023-09-07T09:21:29;10.75;;;4.10;;
34657;SDS011;20865;43.312;27.152;2023-09-07T09:23:54;8.03;;;4.47;;
34657;SDS011;20865;43.312;27.152;2023-09-07T09:26:22;11.28;;;3.85;;
34657;SDS011;20865;43.312;27.152;2023-09-07T09:28:50;11.95;;;4.17;;
34657;SDS011;20865;43.312;27.152;2023-09-07T09:31:18;7.75;;;3.60;;
34657;SDS011;20865;43.312;27.152;2023-09-07T09:33:49;8.78;;;3.55;;
34657;SDS011;20865;43.312;27.152;2023-09-07T09:36:17;11.50;;;3.83;;
34657;SDS011;20865;43.312;27.152;2023-09-07T09:38:50;7.30;;;4.12;;
34657;SDS011;20865;43.312;27.152;2023-09-07T09:41:21;9.25;;;3.50;;
34657;SDS011;20865;43.312;27.152;2023-09-07T09:43:51;15.48;;;3.65;;
34657;SDS011;20865;43.312;27.152;2023-09-07T09:46:20;10.80;;;3.67;;
34657;SDS011;20865;43.312;27.152;2023-09-07T09:48:48;5.67;;;3.77;;
34657;SDS011;20865;43.312;27.152;2023-09-07T09:51:18;11.63;;;4.50;;
34657;SDS011;20865;43.312;27.152;2023-09-07T09:53:46;15.32;;;4.55;;
34657;SDS011;20865;43.312;27.152;2023-09-07T09:56:15;17.27;;;4.45;;
34657;SDS011;20865;43.312;27.152;2023-09-07T09:58:42;13.15;;;3.70;;
34657;SDS011;20865;43.312;27.152;2023-09-07T10:01:10;9.50;;;3.70;;
34657;SDS011;20865;43.312;27.152;2023-09-07T10:03:44;12.35;;;4.20;;
34657;SDS011;20865;43.312;27.152;2023-09-07T10:06:34;17.75;;;4.08;;
34657;SDS011;20865;43.312;27.152;2023-09-07T10:11:30;7.83;;;3.50;;
34657;SDS011;20865;43.312;27.152;2023-09-07T10:14:00;8.60;;;4.05;;
34657;SDS011;20865;43.312;27.152;2023-09-07T10:16:51;11.78;;;4.12;;
34657;SDS011;20865;43.312;27.152;2023-09-07T10:19:14;12.07;;;3.83;;
34657;SDS011;20865;43.312;27.152;2023-09-07T10:21:50;10.10;;;4.40;;
34657;SDS011;20865;43.312;27.152;2023-09-07T10:24:28;5.80;;;3.72;;
34657;SDS011;20865;43.312;27.152;2023-09-07T10:27:02;6.80;;;4.15;;
34657;SDS011;20865;43.312;27.152;2023-09-07T10:29:50;8.68;;;4.17;;
34657;SDS011;20865;43.312;27.152;2023-09-07T10:32:14;7.10;;;3.87;;
34657;SDS011;20865;43.312;27.152;2023-09-07T10:34:42;16.40;;;4.35;;
34657;SDS011;20865;43.312;27.152;2023-09-07T10:37:10;13.20;;;4.42;;
34657;SDS011;20865;43.312;27.152;2023-09-07T10:39:42;11.93;;;4.20;;
34657;SDS011;20865;43.312;27.152;2023-09-07T10:42:20;7.55;;;3.90;;
34657;SDS011;20865;43.312;27.152;2023-09-07T10:44:49;8.25;;;3.58;;
34657;SDS011;20865;43.312;27.152;2023-09-07T10:47:17;8.00;;;3.75;;
34657;SDS011;20865;43.312;27.152;2023-09-07T10:49:45;8.03;;;4.15;;
34657;SDS011;20865;43.312;27.152;2023-09-07T10:52:13;7.53;;;3.62;;
34657;SDS011;20865;43.312;27.152;2023-09-07T10:54:40;15.80;;;4.22;;
34657;SDS011;20865;43.312;27.152;2023-09-07T10:57:09;11.08;;;3.65;;
34657;SDS011;20865;43.312;27.152;2023-09-07T10:59:49;15.55;;;4.03;;
34657;SDS011;20865;43.312;27.152;2023-09-07T11:02:12;8.33;;;3.55;;
34657;SDS011;20865;43.312;27.152;2023-09-07T11:04:40;7.20;;;3.77;;
34657;SDS011;20865;43.312;27.152;2023-09-07T11:07:08;7.22;;;3.67;;
34657;SDS011;20865;43.312;27.152;2023-09-07T11:09:40;7.40;;;3.50;;
34657;SDS011;20865;43.312;27.152;2023-09-07T11:12:11;9.43;;;4.30;;
34657;SDS011;20865;43.312;27.152;2023-09-07T11:14:43;7.95;;;3.80;;
34657;SDS011;20865;43.312;27.152;2023-09-07T11:17:12;8.45;;;3.72;;
34657;SDS011;20865;43.312;27.152;2023-09-07T11:19:40;12.93;;;3.80;;
34657;SDS011;20865;43.312;27.152;2023-09-07T11:22:13;6.58;;;3.52;;
34657;SDS011;20865;43.312;27.152;2023-09-07T11:24:37;8.15;;;3.15;;
34657;SDS011;20865;43.312;27.152;2023-09-07T11:27:04;8.80;;;3.42;;
34657;SDS011;20865;43.312;27.152;2023-09-07T11:29:33;11.03;;;3.67;;
34657;SDS011;20865;43.312;27.152;2023-09-07T11:32:08;9.13;;;3.27;;
34657;SDS011;20865;43.312;27.152;2023-09-07T11:34:54;10.08;;;3.72;;
34657;SDS011;20865;43.312;27.152;2023-09-07T11:37:23;8.40;;;3.55;;
34657;SDS011;20865;43.312;27.152;2023-09-07T11:39:52;6.58;;;3.45;;
34657;SDS011;20865;43.312;27.152;2023-09-07T11:42:19;8.80;;;3.90;;
34657;SDS011;20865;43.312;27.152;2023-09-07T11:44:47;9.13;;;3.60;;
34657;SDS011;20865;43.312;27.152;2023-09-07T11:47:14;7.05;;;3.33;;
34657;SDS011;20865;43.312;27.152;2023-09-07T11:49:42;8.88;;;3.65;;
34657;SDS011;20865;43.312;27.152;2023-09-07T11:52:10;12.20;;;3.98;;
34657;SDS011;20865;43.312;27.152;2023-09-07T11:54:37;8.13;;;3.75;;
34657;SDS011;20865;43.312;27.152;2023-09-07T11:57:05;6.40;;;2.95;;
34657;SDS011;20865;43.312;27.152;2023-09-07T11:59:32;13.20;;;3.75;;
34657;SDS011;20865;43.312;27.152;2023-09-07T12:02:00;8.80;;;3.77;;
34657;SDS011;20865;43.312;27.152;2023-09-07T12:04:27;5.15;;;3.30;;
34657;SDS011;20865;43.312;27.152;2023-09-07T12:06:55;4.70;;;3.30;;
34657;SDS011;20865;43.312;27.152;2023-09-07T12:09:23;8.93;;;3.33;;
34657;SDS011;20865;43.312;27.152;2023-09-07T12:11:50;12.73;;;4.35;;
34657;SDS011;20865;43.312;27.152;2023-09-07T12:14:18;11.55;;;3.33;;
34657;SDS011;20865;43.312;27.152;2023-09-07T12:16:48;18.95;;;4.80;;
34657;SDS011;20865;43.312;27.152;2023-09-07T12:19:15;11.08;;;3.52;;
34657;SDS011;20865;43.312;27.152;2023-09-07T12:21:43;16.00;;;3.85;;
34657;SDS011;20865;43.312;27.152;2023-09-07T12:24:10;10.25;;;3.60;;
34657;SDS011;20865;43.312;27.152;2023-09-07T12:26:38;9.45;;;3.45;;
34657;SDS011;20865;43.312;27.152;2023-09-07T12:29:06;10.78;;;3.20;;
34657;SDS011;20865;43.312;27.152;2023-09-07T12:31:33;11.18;;;4.12;;
34657;SDS011;20865;43.312;27.152;2023-09-07T12:34:01;10.63;;;3.25;;
34657;SDS011;20865;43.312;27.152;2023-09-07T12:36:29;6.92;;;3.22;;
34657;SDS011;20865;43.312;27.152;2023-09-07T12:38:56;21.12;;;5.30;;
34657;SDS011;20865;43.312;27.152;2023-09-07T12:41:25;5.10;;;3.20;;
34657;SDS011;20865;43.312;27.152;2023-09-07T12:43:54;15.13;;;3.50;;
34657;SDS011;20865;43.312;27.152;2023-09-07T12:46:22;10.88;;;3.70;;
34657;SDS011;20865;43.312;27.152;2023-09-07T12:48:49;13.53;;;3.65;;
34657;SDS011;20865;43.312;27.152;2023-09-07T12:51:17;11.43;;;3.27;;
34657;SDS011;20865;43.312;27.152;2023-09-07T12:53:44;12.20;;;3.80;;
34657;SDS011;20865;43.312;27.152;2023-09-07T12:56:12;5.30;;;3.10;;
34657;SDS011;20865;43.312;27.152;2023-09-07T12:58:41;10.53;;;3.17;;
34657;SDS011;20865;43.312;27.152;2023-09-07T13:01:09;7.78;;;3.05;;
34657;SDS011;20865;43.312;27.152;2023-09-07T13:03:39;5.80;;;3.33;;
34657;SDS011;20865;43.312;27.152;2023-09-07T13:06:07;6.30;;;3.40;;
34657;SDS011;20865;43.312;27.152;2023-09-07T13:08:35;5.72;;;2.70;;
34657;SDS011;20865;43.312;27.152;2023-09-07T13:11:02;5.65;;;2.87;;
34657;SDS011;20865;43.312;27.152;2023-09-07T13:13:30;5.03;;;2.70;;
34657;SDS011;20865;43.312;27.152;2023-09-07T13:15:58;8.65;;;3.20;;
34657;SDS011;20865;43.312;27.152;2023-09-07T13:18:26;9.38;;;3.12;;
34657;SDS011;20865;43.312;27.152;2023-09-07T13:20:54;12.25;;;3.22;;
34657;SDS011;20865;43.312;27.152;2023-09-07T13:23:23;9.45;;;3.45;;
34657;SDS011;20865;43.312;27.152;2023-09-07T13:25:52;7.22;;;3.37;;
34657;SDS011;20865;43.312;27.152;2023-09-07T13:28:21;6.80;;;3.85;;
34657;SDS011;20865;43.312;27.152;2023-09-07T13:30:52;5.03;;;3.12;;
34657;SDS011;20865;43.312;27.152;2023-09-07T13:33:20;11.10;;;3.30;;
34657;SDS011;20865;43.312;27.152;2023-09-07T13:35:47;9.45;;;3.30;;
34657;SDS011;20865;43.312;27.152;2023-09-07T13:38:15;5.70;;;3.12;;
34657;SDS011;20865;43.312;27.152;2023-09-07T13:40:43;10.60;;;3.90;;
34657;SDS011;20865;43.312;27.152;2023-09-07T13:43:10;8.83;;;3.37;;
34657;SDS011;20865;43.312;27.152;2023-09-07T13:45:38;10.78;;;3.33;;
34657;SDS011;20865;43.312;27.152;2023-09-07T13:48:06;8.08;;;3.12;;
34657;SDS011;20865;43.312;27.152;2023-09-07T13:50:33;9.70;;;3.05;;
34657;SDS011;20865;43.312;27.152;2023-09-07T13:53:01;7.55;;;3.50;;
34657;SDS011;20865;43.312;27.152;2023-09-07T13:55:29;5.42;;;2.45;;
34657;SDS011;20865;43.312;27.152;2023-09-07T13:57:56;7.20;;;3.30;;
34657;SDS011;20865;43.312;27.152;2023-09-07T14:00:24;10.03;;;3.27;;
34657;SDS011;20865;43.312;27.152;2023-09-07T14:02:51;9.50;;;3.05;;
34657;SDS011;20865;43.312;27.152;2023-09-07T14:05:19;11.40;;;4.45;;
34657;SDS011;20865;43.312;27.152;2023-09-07T14:07:47;6.75;;;3.00;;
34657;SDS011;20865;43.312;27.152;2023-09-07T14:10:15;9.83;;;3.20;;
34657;SDS011;20865;43.312;27.152;2023-09-07T14:12:43;15.00;;;3.52;;
34657;SDS011;20865;43.312;27.152;2023-09-07T14:15:12;5.03;;;2.95;;
34657;SDS011;20865;43.312;27.152;2023-09-07T14:17:40;6.35;;;3.22;;
34657;SDS011;20865;43.312;27.152;2023-09-07T14:20:08;6.50;;;3.22;;
34657;SDS011;20865;43.312;27.152;2023-09-07T14:22:36;8.33;;;3.30;;
34657;SDS011;20865;43.312;27.152;2023-09-07T14:25:04;8.33;;;3.20;;
34657;SDS011;20865;43.312;27.152;2023-09-07T14:27:33;8.23;;;3.58;;
34657;SDS011;20865;43.312;27.152;2023-09-07T14:30:00;5.75;;;3.30;;
34657;SDS011;20865;43.312;27.152;2023-09-07T14:32:28;7.47;;;3.27;;
34657;SDS011;20865;43.312;27.152;2023-09-07T14:34:57;10.58;;;3.67;;
34657;SDS011;20865;43.312;27.152;2023-09-07T14:37:25;7.80;;;2.72;;
34657;SDS011;20865;43.312;27.152;2023-09-07T14:39:52;6.30;;;2.92;;
34657;SDS011;20865;43.312;27.152;2023-09-07T14:42:21;12.18;;;3.45;;